Ana Sayfa
METAR-TAF:

METAR-TAF

Havaalanları :

Huntsville Municipal Airport

Huntsville, Teksas, Amerika Birleşik Devletleri

Enlem: 30-44-38N, Boylam: 095-35-10W, yükseklik: 111 m

METAR: eksik

Saat: 02:02 (07:02 UTC)

Tahmin

Rapor saat 05:20 UTC de 1 saat ve 42 dakika önce yapıldı.
Ayın 16'si saat 06 UTC'den ayın 17'si saat 06 UTC'ye kadar geçerli Tahmin
Rüzgar güneydan 5 kt
Görüş mesafesi: 10 km
2000 ft yükseklikte az bulutlu
Ayın 16'si saat 1500 UTC'den
Rüzgar güney/güneybatıdan 9 kt
Görüş mesafesi: 10 km
2500 ft yükseklikte az bulutlu
Ayın 16'si saat 1800 UTC'den
Rüzgar güneydan 8 kt
Görüş mesafesi: 10 km
4000 ft yükseklikte az bulutlu
Ayın 17'si saat 0300 UTC'den
Rüzgar güneydan 7 kt
Görüş mesafesi: 10 km
2000 ft yükseklikte az bulutlu

TAF: KUTS 160520Z 1606/1706 19005KT P6SM FEW020 FM161500 20009KT P6SM FEW025 FM161800 18008KT P6SM FEW040 FM170300 17007KT P6SM FEW020 AMD NOT SKED

4.000'den fazla havaalanı için hava durumu gözlemleri ve tahminleri (METAR ve TAF raporları).

Kullanılabilir istasyonlar harita üzerinde sarı ve kırmızı noktalarla gösterilir.

İstasyonun adını görmek için fareyi noktanın üzerinde gezdirin.

Sonrasında hava gözlem ve tahminlerini görmek için tıklayın.

Haritayı değiştirmek için: yaklaştırmak için siyah artı işaretli yeşil düğmeye ve uzaklaştırmak için de eksi işaretli düğmeye hızla tıklayın; bitişik haritalar için yeşil okları kullanın.


METAR-TAF: